Pagrindinis puslapis
METAR-TAF:

METAR-TAF

Oro uostai :

Maršalo Salų tarptautinis oro uostas

Madžūras, Maršalo salos

platuma: 07-04N, ilguma: 171-17E, Aukštis: 2 m

Dabartinis oras

Ataskaita buvo paskelbta 8 valandos ir 30 minutes, ne 00:59 UTC
Temperatūra 31°C
Drėgmė 71%
Slėgis 1010 hPa
Matomumas: 32.2 km
Mažai debesys ne aukštis 1600 ft
Išsisklaidę debesys ne aukštis 3000 ft

METAR: PKMJ 220059Z VRB03K 20SM FEW016 SCT030 31/25 A2983 RMK LAST

Laikas: 21:29 (09:29 UTC)

Prognozė

Ataskaita buvo paskelbta 4 valandos ir 9 minutes, ne 05:20 UTC
Prognozė galioja nuo 22 metu 06 UTC su 23 metu 06 UTC
Vėjas 10 kt iš Rytų
Matomumas: 10 km
Išsisklaidę debesys ne aukštis 1500 ft
Išsisklaidę debesys ne aukštis 5000 ft
Liūtis kaimynystėje,

TAF: PKMJ 220520Z 2206/2306 08010KT P6SM VCSH SCT015 SCT050

Orai ataskaitas ir orų prognozės (METAR, TAF).

turimą stotys yra geltonos ir raudonos taškus žemėlapyje.

Perkelti pele per norėdami pamatyti stoties vardą.

Tada spustelėkite, norėdami matyti oro stebėjimo ir prognozės.

Norėdami pakeisti žemėlapį: spustelėkite ant žalios mygtukų su juodo kryžiaus žemyn,; žalią mygtuką su brūkšneliu, jei norite nutolinti; arba žalių rodyklių gretimoms žemėlapius.


METAR-TAF: